sensor_id;sensor_type;location;lat;lon;timestamp;P1;durP1;ratioP1;P2;durP2;ratioP2
419;SDS011;42600;54.408;13.016;2022-10-16T00:01:42;4.73;;;2.73;;
419;SDS011;42600;54.408;13.016;2022-10-16T00:04:08;4.93;;;2.50;;
419;SDS011;42600;54.408;13.016;2022-10-16T00:06:35;7.53;;;2.93;;
419;SDS011;42600;54.408;13.016;2022-10-16T00:09:03;3.67;;;2.10;;
419;SDS011;42600;54.408;13.016;2022-10-16T00:11:31;6.43;;;2.20;;
419;SDS011;42600;54.408;13.016;2022-10-16T00:14:01;4.00;;;2.13;;
419;SDS011;42600;54.408;13.016;2022-10-16T00:16:30;3.23;;;1.77;;
419;SDS011;42600;54.408;13.016;2022-10-16T00:18:57;6.23;;;2.77;;
419;SDS011;42600;54.408;13.016;2022-10-16T00:21:24;3.80;;;2.13;;
419;SDS011;42600;54.408;13.016;2022-10-16T00:23:53;4.70;;;1.90;;
419;SDS011;42600;54.408;13.016;2022-10-16T00:26:23;7.07;;;2.87;;
419;SDS011;42600;54.408;13.016;2022-10-16T00:28:50;3.23;;;1.90;;
419;SDS011;42600;54.408;13.016;2022-10-16T00:31:18;4.43;;;2.07;;
419;SDS011;42600;54.408;13.016;2022-10-16T00:33:46;5.20;;;1.60;;
419;SDS011;42600;54.408;13.016;2022-10-16T00:36:13;4.40;;;2.10;;
419;SDS011;42600;54.408;13.016;2022-10-16T00:38:42;3.73;;;2.07;;
419;SDS011;42600;54.408;13.016;2022-10-16T00:41:10;6.57;;;2.57;;
419;SDS011;42600;54.408;13.016;2022-10-16T00:43:40;3.47;;;2.40;;
419;SDS011;42600;54.408;13.016;2022-10-16T00:46:13;3.93;;;1.80;;
419;SDS011;42600;54.408;13.016;2022-10-16T00:48:45;13.10;;;2.50;;
419;SDS011;42600;54.408;13.016;2022-10-16T00:51:14;5.73;;;2.40;;
419;SDS011;42600;54.408;13.016;2022-10-16T00:53:42;5.00;;;2.03;;
419;SDS011;42600;54.408;13.016;2022-10-16T00:56:10;3.77;;;1.93;;
419;SDS011;42600;54.408;13.016;2022-10-16T00:58:37;4.57;;;2.00;;
419;SDS011;42600;54.408;13.016;2022-10-16T01:01:05;3.60;;;2.13;;
419;SDS011;42600;54.408;13.016;2022-10-16T01:03:32;7.37;;;2.80;;
419;SDS011;42600;54.408;13.016;2022-10-16T01:06:05;5.10;;;2.77;;
419;SDS011;42600;54.408;13.016;2022-10-16T01:08:44;2.63;;;1.63;;
419;SDS011;42600;54.408;13.016;2022-10-16T01:11:17;3.27;;;1.87;;
419;SDS011;42600;54.408;13.016;2022-10-16T01:13:51;4.63;;;1.93;;
419;SDS011;42600;54.408;13.016;2022-10-16T01:16:23;2.63;;;1.60;;
419;SDS011;42600;54.408;13.016;2022-10-16T01:18:59;5.47;;;2.30;;
419;SDS011;42600;54.408;13.016;2022-10-16T01:21:31;9.13;;;2.23;;
419;SDS011;42600;54.408;13.016;2022-10-16T01:24:02;4.23;;;2.07;;
419;SDS011;42600;54.408;13.016;2022-10-16T01:26:36;3.13;;;1.90;;
419;SDS011;42600;54.408;13.016;2022-10-16T01:29:16;4.93;;;2.50;;
419;SDS011;42600;54.408;13.016;2022-10-16T01:31:47;4.33;;;2.03;;
419;SDS011;42600;54.408;13.016;2022-10-16T01:34:22;2.63;;;1.83;;
419;SDS011;42600;54.408;13.016;2022-10-16T01:36:56;5.93;;;2.30;;
419;SDS011;42600;54.408;13.016;2022-10-16T01:39:28;16.53;;;3.40;;
419;SDS011;42600;54.408;13.016;2022-10-16T01:41:58;2.97;;;2.03;;
419;SDS011;42600;54.408;13.016;2022-10-16T01:44:32;4.27;;;2.40;;
419;SDS011;42600;54.408;13.016;2022-10-16T01:47:01;8.87;;;3.20;;
419;SDS011;42600;54.408;13.016;2022-10-16T01:49:29;4.47;;;2.60;;
419;SDS011;42600;54.408;13.016;2022-10-16T01:51:59;5.07;;;2.80;;
419;SDS011;42600;54.408;13.016;2022-10-16T01:54:29;5.20;;;2.50;;
419;SDS011;42600;54.408;13.016;2022-10-16T01:56:59;3.63;;;1.90;;
419;SDS011;42600;54.408;13.016;2022-10-16T01:59:27;4.20;;;2.23;;
419;SDS011;42600;54.408;13.016;2022-10-16T02:01:59;4.80;;;2.30;;
419;SDS011;42600;54.408;13.016;2022-10-16T02:04:31;5.23;;;2.10;;
419;SDS011;42600;54.408;13.016;2022-10-16T02:07:02;6.33;;;2.13;;
419;SDS011;42600;54.408;13.016;2022-10-16T02:09:29;5.73;;;2.63;;
419;SDS011;42600;54.408;13.016;2022-10-16T02:11:59;6.37;;;2.37;;
419;SDS011;42600;54.408;13.016;2022-10-16T02:14:33;5.63;;;2.80;;
419;SDS011;42600;54.408;13.016;2022-10-16T02:16:59;4.30;;;2.20;;
419;SDS011;42600;54.408;13.016;2022-10-16T02:19:26;4.00;;;2.47;;
419;SDS011;42600;54.408;13.016;2022-10-16T02:21:54;4.80;;;2.10;;
419;SDS011;42600;54.408;13.016;2022-10-16T02:24:26;4.70;;;2.07;;
419;SDS011;42600;54.408;13.016;2022-10-16T02:27:00;3.77;;;2.00;;
419;SDS011;42600;54.408;13.016;2022-10-16T02:29:34;5.93;;;2.47;;
419;SDS011;42600;54.408;13.016;2022-10-16T02:32:09;7.40;;;2.80;;
419;SDS011;42600;54.408;13.016;2022-10-16T02:34:37;3.73;;;2.20;;
419;SDS011;42600;54.408;13.016;2022-10-16T02:37:06;6.10;;;2.70;;
419;SDS011;42600;54.408;13.016;2022-10-16T02:39:35;3.87;;;2.00;;
419;SDS011;42600;54.408;13.016;2022-10-16T02:42:02;3.00;;;2.23;;
419;SDS011;42600;54.408;13.016;2022-10-16T02:44:29;4.00;;;2.30;;
419;SDS011;42600;54.408;13.016;2022-10-16T02:46:57;6.10;;;2.57;;
419;SDS011;42600;54.408;13.016;2022-10-16T02:49:23;3.70;;;2.30;;
419;SDS011;42600;54.408;13.016;2022-10-16T02:51:50;5.13;;;2.10;;
419;SDS011;42600;54.408;13.016;2022-10-16T02:54:17;4.60;;;2.07;;
419;SDS011;42600;54.408;13.016;2022-10-16T02:56:43;4.47;;;2.30;;
419;SDS011;42600;54.408;13.016;2022-10-16T02:59:10;5.43;;;2.00;;
419;SDS011;42600;54.408;13.016;2022-10-16T03:01:36;4.60;;;2.10;;
419;SDS011;42600;54.408;13.016;2022-10-16T03:04:04;3.47;;;2.00;;
419;SDS011;42600;54.408;13.016;2022-10-16T03:06:31;4.90;;;2.57;;
419;SDS011;42600;54.408;13.016;2022-10-16T03:08:57;4.30;;;2.23;;
419;SDS011;42600;54.408;13.016;2022-10-16T03:11:24;5.17;;;2.50;;
419;SDS011;42600;54.408;13.016;2022-10-16T03:13:51;6.33;;;2.70;;
419;SDS011;42600;54.408;13.016;2022-10-16T03:16:18;8.83;;;2.47;;
419;SDS011;42600;54.408;13.016;2022-10-16T03:18:47;4.23;;;2.60;;
419;SDS011;42600;54.408;13.016;2022-10-16T03:21:15;3.13;;;2.00;;
419;SDS011;42600;54.408;13.016;2022-10-16T03:23:42;5.90;;;2.90;;
419;SDS011;42600;54.408;13.016;2022-10-16T03:26:08;6.93;;;3.30;;
419;SDS011;42600;54.408;13.016;2022-10-16T03:28:35;5.73;;;2.13;;
419;SDS011;42600;54.408;13.016;2022-10-16T03:31:02;6.20;;;3.33;;
419;SDS011;42600;54.408;13.016;2022-10-16T03:33:28;3.83;;;1.90;;
419;SDS011;42600;54.408;13.016;2022-10-16T03:35:55;12.00;;;3.80;;
419;SDS011;42600;54.408;13.016;2022-10-16T03:38:22;3.50;;;1.87;;
419;SDS011;42600;54.408;13.016;2022-10-16T03:40:49;4.63;;;2.70;;
419;SDS011;42600;54.408;13.016;2022-10-16T03:43:16;5.67;;;2.67;;
419;SDS011;42600;54.408;13.016;2022-10-16T03:45:42;4.87;;;2.47;;
419;SDS011;42600;54.408;13.016;2022-10-16T03:48:09;5.70;;;1.80;;
419;SDS011;42600;54.408;13.016;2022-10-16T03:50:35;5.87;;;3.03;;
419;SDS011;42600;54.408;13.016;2022-10-16T03:53:02;4.13;;;2.30;;
419;SDS011;42600;54.408;13.016;2022-10-16T03:55:30;4.80;;;2.07;;
419;SDS011;42600;54.408;13.016;2022-10-16T03:57:57;7.63;;;3.60;;
419;SDS011;42600;54.408;13.016;2022-10-16T04:00:23;6.40;;;3.03;;
419;SDS011;42600;54.408;13.016;2022-10-16T04:02:50;7.20;;;3.03;;
419;SDS011;42600;54.408;13.016;2022-10-16T04:05:16;4.50;;;2.90;;
419;SDS011;42600;54.408;13.016;2022-10-16T04:07:43;5.27;;;3.47;;
419;SDS011;42600;54.408;13.016;2022-10-16T04:10:09;9.73;;;3.63;;
419;SDS011;42600;54.408;13.016;2022-10-16T04:12:37;4.80;;;2.40;;
419;SDS011;42600;54.408;13.016;2022-10-16T04:15:04;7.53;;;3.80;;
419;SDS011;42600;54.408;13.016;2022-10-16T04:17:31;5.27;;;3.00;;
419;SDS011;42600;54.408;13.016;2022-10-16T04:19:57;7.13;;;3.00;;
419;SDS011;42600;54.408;13.016;2022-10-16T04:22:24;6.50;;;3.40;;
419;SDS011;42600;54.408;13.016;2022-10-16T04:24:51;15.00;;;2.90;;
419;SDS011;42600;54.408;13.016;2022-10-16T04:27:17;13.33;;;4.10;;
419;SDS011;42600;54.408;13.016;2022-10-16T04:29:45;6.83;;;3.27;;
419;SDS011;42600;54.408;13.016;2022-10-16T04:32:12;6.23;;;3.30;;
419;SDS011;42600;54.408;13.016;2022-10-16T04:34:39;5.67;;;3.20;;
419;SDS011;42600;54.408;13.016;2022-10-16T04:37:05;8.20;;;3.10;;
419;SDS011;42600;54.408;13.016;2022-10-16T04:39:32;5.47;;;2.70;;
419;SDS011;42600;54.408;13.016;2022-10-16T04:41:58;8.73;;;3.27;;
419;SDS011;42600;54.408;13.016;2022-10-16T04:44:25;8.83;;;3.43;;
419;SDS011;42600;54.408;13.016;2022-10-16T04:46:53;8.17;;;3.53;;
419;SDS011;42600;54.408;13.016;2022-10-16T04:49:19;8.90;;;2.70;;
419;SDS011;42600;54.408;13.016;2022-10-16T04:51:46;7.10;;;3.50;;
419;SDS011;42600;54.408;13.016;2022-10-16T04:54:12;6.30;;;2.77;;
419;SDS011;42600;54.408;13.016;2022-10-16T04:56:39;3.90;;;2.07;;
419;SDS011;42600;54.408;13.016;2022-10-16T04:59:11;5.50;;;3.27;;
419;SDS011;42600;54.408;13.016;2022-10-16T05:01:38;6.87;;;3.43;;
419;SDS011;42600;54.408;13.016;2022-10-16T05:04:06;6.97;;;3.60;;
419;SDS011;42600;54.408;13.016;2022-10-16T05:06:32;7.87;;;3.63;;
419;SDS011;42600;54.408;13.016;2022-10-16T05:08:59;4.17;;;2.47;;
419;SDS011;42600;54.408;13.016;2022-10-16T05:11:26;7.67;;;4.50;;
419;SDS011;42600;54.408;13.016;2022-10-16T05:13:52;4.50;;;2.20;;
419;SDS011;42600;54.408;13.016;2022-10-16T05:16:19;4.50;;;2.67;;
419;SDS011;42600;54.408;13.016;2022-10-16T05:18:45;6.73;;;3.80;;
419;SDS011;42600;54.408;13.016;2022-10-16T05:21:13;6.80;;;3.03;;
419;SDS011;42600;54.408;13.016;2022-10-16T05:23:40;6.93;;;3.30;;
419;SDS011;42600;54.408;13.016;2022-10-16T05:26:07;6.60;;;2.73;;
419;SDS011;42600;54.408;13.016;2022-10-16T05:28:34;8.73;;;3.10;;
419;SDS011;42600;54.408;13.016;2022-10-16T05:31:03;7.33;;;3.00;;
419;SDS011;42600;54.408;13.016;2022-10-16T05:33:30;4.47;;;2.30;;
419;SDS011;42600;54.408;13.016;2022-10-16T05:35:57;8.90;;;3.77;;
419;SDS011;42600;54.408;13.016;2022-10-16T05:38:28;7.03;;;2.20;;
419;SDS011;42600;54.408;13.016;2022-10-16T05:40:54;3.90;;;2.50;;
419;SDS011;42600;54.408;13.016;2022-10-16T05:43:22;4.00;;;2.53;;
419;SDS011;42600;54.408;13.016;2022-10-16T05:45:55;4.33;;;1.70;;
419;SDS011;42600;54.408;13.016;2022-10-16T05:48:22;3.23;;;2.00;;
419;SDS011;42600;54.408;13.016;2022-10-16T05:50:55;5.57;;;2.43;;
419;SDS011;42600;54.408;13.016;2022-10-16T05:53:23;4.57;;;2.33;;
419;SDS011;42600;54.408;13.016;2022-10-16T05:55:52;4.53;;;2.30;;
419;SDS011;42600;54.408;13.016;2022-10-16T05:58:19;7.37;;;3.23;;
419;SDS011;42600;54.408;13.016;2022-10-16T06:00:52;7.17;;;2.50;;
419;SDS011;42600;54.408;13.016;2022-10-16T06:03:19;6.90;;;3.00;;
419;SDS011;42600;54.408;13.016;2022-10-16T06:05:45;4.60;;;2.10;;
419;SDS011;42600;54.408;13.016;2022-10-16T06:08:12;5.47;;;2.10;;
419;SDS011;42600;54.408;13.016;2022-10-16T06:10:38;4.83;;;2.27;;
419;SDS011;42600;54.408;13.016;2022-10-16T06:13:06;7.30;;;2.30;;
419;SDS011;42600;54.408;13.016;2022-10-16T06:15:33;9.27;;;2.43;;
419;SDS011;42600;54.408;13.016;2022-10-16T06:17:59;4.43;;;2.37;;
419;SDS011;42600;54.408;13.016;2022-10-16T06:20:26;4.50;;;2.60;;
419;SDS011;42600;54.408;13.016;2022-10-16T06:22:52;5.43;;;2.50;;
419;SDS011;42600;54.408;13.016;2022-10-16T06:25:19;9.10;;;3.00;;
419;SDS011;42600;54.408;13.016;2022-10-16T06:27:46;4.80;;;2.83;;
419;SDS011;42600;54.408;13.016;2022-10-16T06:30:14;4.40;;;2.53;;
419;SDS011;42600;54.408;13.016;2022-10-16T06:32:40;4.80;;;2.73;;
419;SDS011;42600;54.408;13.016;2022-10-16T06:35:07;5.43;;;2.40;;
419;SDS011;42600;54.408;13.016;2022-10-16T06:37:34;3.97;;;2.17;;
419;SDS011;42600;54.408;13.016;2022-10-16T06:40:00;6.90;;;2.60;;
419;SDS011;42600;54.408;13.016;2022-10-16T06:42:29;5.20;;;2.07;;
419;SDS011;42600;54.408;13.016;2022-10-16T06:44:56;3.47;;;1.90;;
419;SDS011;42600;54.408;13.016;2022-10-16T06:47:24;7.50;;;3.17;;
419;SDS011;42600;54.408;13.016;2022-10-16T06:49:50;6.20;;;2.07;;
419;SDS011;42600;54.408;13.016;2022-10-16T06:52:17;3.90;;;1.80;;
419;SDS011;42600;54.408;13.016;2022-10-16T06:54:43;5.10;;;1.70;;
419;SDS011;42600;54.408;13.016;2022-10-16T06:57:10;3.97;;;2.40;;
419;SDS011;42600;54.408;13.016;2022-10-16T06:59:36;4.90;;;1.57;;
419;SDS011;42600;54.408;13.016;2022-10-16T07:02:03;4.90;;;1.80;;
419;SDS011;42600;54.408;13.016;2022-10-16T07:04:31;2.83;;;1.57;;
419;SDS011;42600;54.408;13.016;2022-10-16T07:06:59;3.87;;;1.70;;
419;SDS011;42600;54.408;13.016;2022-10-16T07:09:26;4.80;;;1.87;;
419;SDS011;42600;54.408;13.016;2022-10-16T07:11:52;5.37;;;2.23;;
419;SDS011;42600;54.408;13.016;2022-10-16T07:14:20;3.40;;;2.30;;
419;SDS011;42600;54.408;13.016;2022-10-16T07:16:47;2.80;;;1.27;;
419;SDS011;42600;54.408;13.016;2022-10-16T07:19:14;5.37;;;2.07;;
419;SDS011;42600;54.408;13.016;2022-10-16T07:21:43;4.23;;;2.30;;
419;SDS011;42600;54.408;13.016;2022-10-16T07:24:11;2.90;;;1.33;;
419;SDS011;42600;54.408;13.016;2022-10-16T07:26:39;3.27;;;1.20;;
419;SDS011;42600;54.408;13.016;2022-10-16T07:29:08;2.33;;;1.60;;
419;SDS011;42600;54.408;13.016;2022-10-16T07:31:38;3.80;;;1.87;;
419;SDS011;42600;54.408;13.016;2022-10-16T07:34:05;3.70;;;1.60;;
419;SDS011;42600;54.408;13.016;2022-10-16T07:36:31;3.07;;;1.30;;
419;SDS011;42600;54.408;13.016;2022-10-16T07:38:59;3.30;;;1.67;;
419;SDS011;42600;54.408;13.016;2022-10-16T07:41:26;2.83;;;1.40;;
419;SDS011;42600;54.408;13.016;2022-10-16T07:43:53;2.60;;;1.10;;
419;SDS011;42600;54.408;13.016;2022-10-16T07:46:21;1.80;;;1.07;;
419;SDS011;42600;54.408;13.016;2022-10-16T07:48:48;3.83;;;1.93;;
419;SDS011;42600;54.408;13.016;2022-10-16T07:51:17;3.67;;;1.73;;
419;SDS011;42600;54.408;13.016;2022-10-16T07:53:44;5.30;;;2.27;;
419;SDS011;42600;54.408;13.016;2022-10-16T07:56:13;4.20;;;1.47;;
419;SDS011;42600;54.408;13.016;2022-10-16T07:58:41;2.20;;;1.10;;
419;SDS011;42600;54.408;13.016;2022-10-16T08:01:08;1.50;;;0.80;;
419;SDS011;42600;54.408;13.016;2022-10-16T08:03:36;1.87;;;1.23;;
419;SDS011;42600;54.408;13.016;2022-10-16T08:06:03;3.30;;;1.10;;
419;SDS011;42600;54.408;13.016;2022-10-16T08:08:31;6.27;;;1.20;;
419;SDS011;42600;54.408;13.016;2022-10-16T08:10:57;4.30;;;1.10;;
419;SDS011;42600;54.408;13.016;2022-10-16T08:13:25;2.70;;;1.13;;
419;SDS011;42600;54.408;13.016;2022-10-16T08:15:53;2.90;;;1.03;;
419;SDS011;42600;54.408;13.016;2022-10-16T08:18:20;2.83;;;0.90;;
419;SDS011;42600;54.408;13.016;2022-10-16T08:20:46;2.93;;;1.20;;
419;SDS011;42600;54.408;13.016;2022-10-16T08:23:13;1.67;;;0.90;;
419;SDS011;42600;54.408;13.016;2022-10-16T08:25:40;3.23;;;1.00;;
419;SDS011;42600;54.408;13.016;2022-10-16T08:28:08;1.67;;;0.90;;
419;SDS011;42600;54.408;13.016;2022-10-16T08:30:37;2.60;;;1.30;;
419;SDS011;42600;54.408;13.016;2022-10-16T08:33:05;4.13;;;1.43;;
419;SDS011;42600;54.408;13.016;2022-10-16T08:35:31;7.50;;;1.00;;
419;SDS011;42600;54.408;13.016;2022-10-16T08:37:58;6.57;;;1.10;;
419;SDS011;42600;54.408;13.016;2022-10-16T08:40:25;1.70;;;1.00;;
419;SDS011;42600;54.408;13.016;2022-10-16T08:43:06;1.37;;;0.60;;
419;SDS011;42600;54.408;13.016;2022-10-16T08:46:11;2.40;;;0.90;;
419;SDS011;42600;54.408;13.016;2022-10-16T08:48:50;2.13;;;0.97;;
419;SDS011;42600;54.408;13.016;2022-10-16T08:51:19;2.23;;;0.80;;
419;SDS011;42600;54.408;13.016;2022-10-16T08:53:49;1.37;;;0.83;;
419;SDS011;42600;54.408;13.016;2022-10-16T08:56:19;3.37;;;1.63;;
419;SDS011;42600;54.408;13.016;2022-10-16T08:58:46;2.70;;;1.17;;
419;SDS011;42600;54.408;13.016;2022-10-16T09:01:15;1.80;;;0.93;;
419;SDS011;42600;54.408;13.016;2022-10-16T09:03:48;1.90;;;1.10;;
419;SDS011;42600;54.408;13.016;2022-10-16T09:06:30;2.13;;;0.97;;
419;SDS011;42600;54.408;13.016;2022-10-16T09:09:11;3.70;;;1.03;;
419;SDS011;42600;54.408;13.016;2022-10-16T09:11:48;4.43;;;1.03;;
419;SDS011;42600;54.408;13.016;2022-10-16T09:14:30;1.40;;;0.87;;
419;SDS011;42600;54.408;13.016;2022-10-16T09:17:11;3.53;;;0.97;;
419;SDS011;42600;54.408;13.016;2022-10-16T09:19:48;3.73;;;1.10;;
419;SDS011;42600;54.408;13.016;2022-10-16T09:22:20;1.23;;;0.60;;
419;SDS011;42600;54.408;13.016;2022-10-16T09:24:50;1.67;;;0.70;;
419;SDS011;42600;54.408;13.016;2022-10-16T09:27:17;4.93;;;1.33;;
419;SDS011;42600;54.408;13.016;2022-10-16T09:29:43;2.83;;;1.10;;
419;SDS011;42600;54.408;13.016;2022-10-16T09:32:12;3.03;;;1.00;;
419;SDS011;42600;54.408;13.016;2022-10-16T09:34:42;1.60;;;1.03;;
419;SDS011;42600;54.408;13.016;2022-10-16T09:37:11;6.17;;;1.07;;
419;SDS011;42600;54.408;13.016;2022-10-16T09:39:46;1.70;;;0.80;;
419;SDS011;42600;54.408;13.016;2022-10-16T09:42:15;1.40;;;0.80;;
419;SDS011;42600;54.408;13.016;2022-10-16T09:44:42;3.60;;;0.90;;
419;SDS011;42600;54.408;13.016;2022-10-16T09:47:16;3.20;;;1.10;;
419;SDS011;42600;54.408;13.016;2022-10-16T09:49:52;7.53;;;1.63;;
419;SDS011;42600;54.408;13.016;2022-10-16T09:52:20;1.93;;;0.67;;
419;SDS011;42600;54.408;13.016;2022-10-16T09:54:51;1.60;;;0.77;;
419;SDS011;42600;54.408;13.016;2022-10-16T09:57:18;2.73;;;0.97;;
419;SDS011;42600;54.408;13.016;2022-10-16T09:59:46;2.40;;;1.33;;
419;SDS011;42600;54.408;13.016;2022-10-16T10:02:16;1.90;;;1.13;;
419;SDS011;42600;54.408;13.016;2022-10-16T10:04:47;1.60;;;0.90;;
419;SDS011;42600;54.408;13.016;2022-10-16T10:07:17;4.47;;;1.10;;
419;SDS011;42600;54.408;13.016;2022-10-16T10:09:44;1.70;;;0.80;;
419;SDS011;42600;54.408;13.016;2022-10-16T10:12:16;2.00;;;0.77;;
419;SDS011;42600;54.408;13.016;2022-10-16T10:14:46;2.10;;;1.00;;
419;SDS011;42600;54.408;13.016;2022-10-16T10:17:16;1.60;;;0.77;;
419;SDS011;42600;54.408;13.016;2022-10-16T10:19:48;1.73;;;0.80;;
419;SDS011;42600;54.408;13.016;2022-10-16T10:22:30;1.47;;;0.97;;
419;SDS011;42600;54.408;13.016;2022-10-16T10:28:06;1.77;;;0.83;;
419;SDS011;42600;54.408;13.016;2022-10-16T10:30:44;1.93;;;1.13;;
419;SDS011;42600;54.408;13.016;2022-10-16T10:33:21;2.10;;;1.10;;
419;SDS011;42600;54.408;13.016;2022-10-16T10:35:56;1.40;;;0.80;;
419;SDS011;42600;54.408;13.016;2022-10-16T10:38:33;5.13;;;0.77;;
419;SDS011;42600;54.408;13.016;2022-10-16T10:41:10;1.93;;;0.70;;
419;SDS011;42600;54.408;13.016;2022-10-16T10:43:55;1.73;;;0.73;;
419;SDS011;42600;54.408;13.016;2022-10-16T10:46:32;6.93;;;1.03;;
419;SDS011;42600;54.408;13.016;2022-10-16T10:49:06;1.30;;;0.80;;
419;SDS011;42600;54.408;13.016;2022-10-16T10:51:42;1.00;;;0.57;;
419;SDS011;42600;54.408;13.016;2022-10-16T10:54:19;1.17;;;0.70;;
419;SDS011;42600;54.408;13.016;2022-10-16T10:56:51;2.40;;;0.80;;
419;SDS011;42600;54.408;13.016;2022-10-16T10:59:36;4.17;;;0.70;;
419;SDS011;42600;54.408;13.016;2022-10-16T11:02:15;1.20;;;0.60;;
419;SDS011;42600;54.408;13.016;2022-10-16T11:04:58;4.97;;;1.00;;
419;SDS011;42600;54.408;13.016;2022-10-16T11:07:43;2.10;;;1.00;;
419;SDS011;42600;54.408;13.016;2022-10-16T11:10:16;1.40;;;0.80;;
419;SDS011;42600;54.408;13.016;2022-10-16T11:12:47;0.97;;;0.47;;
419;SDS011;42600;54.408;13.016;2022-10-16T11:15:19;1.50;;;0.70;;
419;SDS011;42600;54.408;13.016;2022-10-16T11:17:51;1.33;;;0.90;;
419;SDS011;42600;54.408;13.016;2022-10-16T11:20:23;2.50;;;0.97;;
419;SDS011;42600;54.408;13.016;2022-10-16T11:22:53;1.67;;;0.77;;
419;SDS011;42600;54.408;13.016;2022-10-16T11:25:24;2.30;;;0.60;;
419;SDS011;42600;54.408;13.016;2022-10-16T11:27:54;1.23;;;0.73;;
419;SDS011;42600;54.408;13.016;2022-10-16T11:30:25;7.17;;;0.90;;
419;SDS011;42600;54.408;13.016;2022-10-16T11:32:56;17.03;;;1.07;;
419;SDS011;42600;54.408;13.016;2022-10-16T11:35:36;3.97;;;1.13;;
419;SDS011;42600;54.408;13.016;2022-10-16T11:38:09;2.07;;;0.80;;
419;SDS011;42600;54.408;13.016;2022-10-16T11:40:41;1.40;;;0.83;;
419;SDS011;42600;54.408;13.016;2022-10-16T11:43:13;1.93;;;0.77;;
419;SDS011;42600;54.408;13.016;2022-10-16T11:45:43;2.10;;;1.07;;
419;SDS011;42600;54.408;13.016;2022-10-16T11:48:15;1.00;;;0.50;;
419;SDS011;42600;54.408;13.016;2022-10-16T11:50:51;2.30;;;0.93;;
419;SDS011;42600;54.408;13.016;2022-10-16T11:53:22;1.30;;;0.60;;
419;SDS011;42600;54.408;13.016;2022-10-16T11:55:57;2.63;;;0.90;;
419;SDS011;42600;54.408;13.016;2022-10-16T11:58:25;1.27;;;0.70;;
419;SDS011;42600;54.408;13.016;2022-10-16T12:00:57;2.00;;;0.93;;
419;SDS011;42600;54.408;13.016;2022-10-16T12:03:31;1.47;;;0.90;;
419;SDS011;42600;54.408;13.016;2022-10-16T12:06:06;1.40;;;0.70;;
419;SDS011;42600;54.408;13.016;2022-10-16T12:08:43;1.27;;;0.60;;
419;SDS011;42600;54.408;13.016;2022-10-16T12:11:20;1.10;;;0.60;;
419;SDS011;42600;54.408;13.016;2022-10-16T12:14:03;1.77;;;0.80;;
419;SDS011;42600;54.408;13.016;2022-10-16T12:16:32;9.03;;;0.63;;
419;SDS011;42600;54.408;13.016;2022-10-16T12:19:11;3.87;;;0.70;;
419;SDS011;42600;54.408;13.016;2022-10-16T12:21:40;1.30;;;0.63;;
419;SDS011;42600;54.408;13.016;2022-10-16T12:24:18;1.20;;;0.60;;
419;SDS011;42600;54.408;13.016;2022-10-16T12:26:48;1.73;;;0.80;;
419;SDS011;42600;54.408;13.016;2022-10-16T12:29:21;4.53;;;0.83;;
419;SDS011;42600;54.408;13.016;2022-10-16T12:31:58;2.57;;;1.13;;
419;SDS011;42600;54.408;13.016;2022-10-16T12:34:27;1.90;;;0.83;;
419;SDS011;42600;54.408;13.016;2022-10-16T12:37:06;2.03;;;0.60;;
419;SDS011;42600;54.408;13.016;2022-10-16T12:39:39;1.10;;;0.70;;
419;SDS011;42600;54.408;13.016;2022-10-16T12:42:19;1.00;;;0.50;;
419;SDS011;42600;54.408;13.016;2022-10-16T12:44:48;1.23;;;0.70;;
419;SDS011;42600;54.408;13.016;2022-10-16T12:47:22;2.20;;;0.73;;
419;SDS011;42600;54.408;13.016;2022-10-16T12:49:51;1.50;;;0.77;;
419;SDS011;42600;54.408;13.016;2022-10-16T12:52:28;2.40;;;0.80;;
419;SDS011;42600;54.408;13.016;2022-10-16T12:55:02;1.13;;;0.60;;
419;SDS011;42600;54.408;13.016;2022-10-16T12:57:34;0.97;;;0.40;;
419;SDS011;42600;54.408;13.016;2022-10-16T13:00:13;1.30;;;0.50;;
419;SDS011;42600;54.408;13.016;2022-10-16T13:05:51;2.03;;;0.97;;
419;SDS011;42600;54.408;13.016;2022-10-16T13:08:35;2.40;;;0.60;;
419;SDS011;42600;54.408;13.016;2022-10-16T13:11:15;3.57;;;0.73;;
419;SDS011;42600;54.408;13.016;2022-10-16T13:13:51;2.70;;;0.60;;
419;SDS011;42600;54.408;13.016;2022-10-16T13:16:30;1.57;;;0.70;;
419;SDS011;42600;54.408;13.016;2022-10-16T13:19:16;4.60;;;1.37;;
419;SDS011;42600;54.408;13.016;2022-10-16T13:21:51;2.23;;;0.97;;
419;SDS011;42600;54.408;13.016;2022-10-16T13:24:36;12.57;;;1.30;;
419;SDS011;42600;54.408;13.016;2022-10-16T13:27:09;1.30;;;0.70;;
419;SDS011;42600;54.408;13.016;2022-10-16T13:29:40;1.30;;;0.70;;
419;SDS011;42600;54.408;13.016;2022-10-16T13:32:09;1.10;;;0.60;;
419;SDS011;42600;54.408;13.016;2022-10-16T13:34:43;15.53;;;1.20;;
419;SDS011;42600;54.408;13.016;2022-10-16T13:37:16;1.10;;;0.60;;
419;SDS011;42600;54.408;13.016;2022-10-16T13:39:45;1.20;;;0.60;;
419;SDS011;42600;54.408;13.016;2022-10-16T13:42:12;1.37;;;0.80;;
419;SDS011;42600;54.408;13.016;2022-10-16T13:44:49;3.10;;;1.30;;
419;SDS011;42600;54.408;13.016;2022-10-16T13:47:18;1.33;;;0.63;;
419;SDS011;42600;54.408;13.016;2022-10-16T13:49:45;2.37;;;0.93;;
419;SDS011;42600;54.408;13.016;2022-10-16T13:52:16;1.70;;;1.10;;
419;SDS011;42600;54.408;13.016;2022-10-16T13:54:46;2.50;;;0.80;;
419;SDS011;42600;54.408;13.016;2022-10-16T13:57:14;1.13;;;0.60;;
419;SDS011;42600;54.408;13.016;2022-10-16T13:59:41;1.20;;;0.63;;
419;SDS011;42600;54.408;13.016;2022-10-16T14:02:14;6.93;;;0.90;;
419;SDS011;42600;54.408;13.016;2022-10-16T14:04:45;2.50;;;1.17;;
419;SDS011;42600;54.408;13.016;2022-10-16T14:07:13;1.97;;;0.80;;
419;SDS011;42600;54.408;13.016;2022-10-16T14:09:48;4.00;;;0.70;;
419;SDS011;42600;54.408;13.016;2022-10-16T14:12:16;1.10;;;0.60;;
419;SDS011;42600;54.408;13.016;2022-10-16T14:14:43;1.30;;;0.70;;
419;SDS011;42600;54.408;13.016;2022-10-16T14:17:14;8.03;;;1.60;;
419;SDS011;42600;54.408;13.016;2022-10-16T14:19:45;1.27;;;0.70;;
419;SDS011;42600;54.408;13.016;2022-10-16T14:22:19;1.20;;;0.77;;
419;SDS011;42600;54.408;13.016;2022-10-16T14:24:59;3.93;;;1.53;;
419;SDS011;42600;54.408;13.016;2022-10-16T14:27:29;2.23;;;0.80;;
419;SDS011;42600;54.408;13.016;2022-10-16T14:30:11;6.10;;;1.07;;
419;SDS011;42600;54.408;13.016;2022-10-16T14:32:42;3.47;;;1.30;;
419;SDS011;42600;54.408;13.016;2022-10-16T14:35:24;1.30;;;0.60;;
419;SDS011;42600;54.408;13.016;2022-10-16T14:37:52;2.67;;;1.37;;
419;SDS011;42600;54.408;13.016;2022-10-16T14:40:21;2.13;;;1.23;;
419;SDS011;42600;54.408;13.016;2022-10-16T14:42:50;8.10;;;0.73;;
419;SDS011;42600;54.408;13.016;2022-10-16T14:45:18;1.83;;;1.03;;
419;SDS011;42600;54.408;13.016;2022-10-16T14:47:47;1.33;;;0.70;;
419;SDS011;42600;54.408;13.016;2022-10-16T14:50:16;1.17;;;0.50;;
419;SDS011;42600;54.408;13.016;2022-10-16T14:52:43;1.30;;;0.60;;
419;SDS011;42600;54.408;13.016;2022-10-16T14:55:10;1.33;;;0.73;;
419;SDS011;42600;54.408;13.016;2022-10-16T14:57:38;2.57;;;0.80;;
419;SDS011;42600;54.408;13.016;2022-10-16T15:00:08;6.00;;;0.90;;
419;SDS011;42600;54.408;13.016;2022-10-16T15:02:41;4.13;;;1.27;;
419;SDS011;42600;54.408;13.016;2022-10-16T15:05:10;4.10;;;0.97;;
419;SDS011;42600;54.408;13.016;2022-10-16T15:07:39;1.00;;;0.40;;
419;SDS011;42600;54.408;13.016;2022-10-16T15:10:06;1.70;;;1.00;;
419;SDS011;42600;54.408;13.016;2022-10-16T15:12:33;1.83;;;0.90;;
419;SDS011;42600;54.408;13.016;2022-10-16T15:15:01;1.40;;;0.90;;
419;SDS011;42600;54.408;13.016;2022-10-16T15:17:41;5.40;;;1.30;;
419;SDS011;42600;54.408;13.016;2022-10-16T15:20:08;1.50;;;0.90;;
419;SDS011;42600;54.408;13.016;2022-10-16T15:22:34;2.43;;;1.00;;
419;SDS011;42600;54.408;13.016;2022-10-16T15:25:01;3.83;;;1.13;;